sensor_id;sensor_type;location;lat;lon;timestamp;temperature;humidity
31379;DHT22;61664;48.112;11.662;2023-11-19T00:01:06;7.50;93.90
31379;DHT22;61664;48.112;11.662;2023-11-19T00:03:33;7.50;94.00
31379;DHT22;61664;48.112;11.662;2023-11-19T00:06:00;7.50;94.10
31379;DHT22;61664;48.112;11.662;2023-11-19T00:08:27;7.40;94.20
31379;DHT22;61664;48.112;11.662;2023-11-19T00:10:57;7.50;94.00
31379;DHT22;61664;48.112;11.662;2023-11-19T00:13:25;7.50;94.00
31379;DHT22;61664;48.112;11.662;2023-11-19T00:15:52;7.50;94.20
31379;DHT22;61664;48.112;11.662;2023-11-19T00:18:19;7.50;94.40
31379;DHT22;61664;48.112;11.662;2023-11-19T00:20:47;7.50;94.40
31379;DHT22;61664;48.112;11.662;2023-11-19T00:23:14;7.70;94.40
31379;DHT22;61664;48.112;11.662;2023-11-19T00:25:41;7.60;94.30
31379;DHT22;61664;48.112;11.662;2023-11-19T00:28:08;7.60;94.20
31379;DHT22;61664;48.112;11.662;2023-11-19T00:30:35;7.60;94.30
31379;DHT22;61664;48.112;11.662;2023-11-19T00:33:02;7.60;94.30
31379;DHT22;61664;48.112;11.662;2023-11-19T00:35:31;7.60;94.30
31379;DHT22;61664;48.112;11.662;2023-11-19T00:37:59;7.60;94.40
31379;DHT22;61664;48.112;11.662;2023-11-19T00:40:26;7.70;94.60
31379;DHT22;61664;48.112;11.662;2023-11-19T00:42:55;7.70;94.70
31379;DHT22;61664;48.112;11.662;2023-11-19T00:45:25;7.70;94.80
31379;DHT22;61664;48.112;11.662;2023-11-19T00:47:52;7.80;94.80
31379;DHT22;61664;48.112;11.662;2023-11-19T00:50:19;7.80;94.80
31379;DHT22;61664;48.112;11.662;2023-11-19T00:52:46;7.80;94.80
31379;DHT22;61664;48.112;11.662;2023-11-19T00:55:13;7.90;95.00
31379;DHT22;61664;48.112;11.662;2023-11-19T00:57:44;7.90;94.90
31379;DHT22;61664;48.112;11.662;2023-11-19T01:00:12;7.90;95.00
31379;DHT22;61664;48.112;11.662;2023-11-19T01:02:46;8.00;95.00
31379;DHT22;61664;48.112;11.662;2023-11-19T01:05:16;8.10;94.90
31379;DHT22;61664;48.112;11.662;2023-11-19T01:07:48;8.00;94.80
31379;DHT22;61664;48.112;11.662;2023-11-19T01:10:15;8.10;94.80
31379;DHT22;61664;48.112;11.662;2023-11-19T01:12:42;8.10;94.80
31379;DHT22;61664;48.112;11.662;2023-11-19T01:15:12;8.10;94.70
31379;DHT22;61664;48.112;11.662;2023-11-19T01:17:42;8.10;94.70
31379;DHT22;61664;48.112;11.662;2023-11-19T01:20:13;8.10;94.60
31379;DHT22;61664;48.112;11.662;2023-11-19T01:22:40;8.10;94.50
31379;DHT22;61664;48.112;11.662;2023-11-19T01:25:07;8.10;94.40
31379;DHT22;61664;48.112;11.662;2023-11-19T01:27:34;8.10;94.60
31379;DHT22;61664;48.112;11.662;2023-11-19T01:30:04;8.10;94.70
31379;DHT22;61664;48.112;11.662;2023-11-19T01:32:32;8.20;94.70
31379;DHT22;61664;48.112;11.662;2023-11-19T01:34:59;8.20;94.60
31379;DHT22;61664;48.112;11.662;2023-11-19T01:37:26;8.20;94.70
31379;DHT22;61664;48.112;11.662;2023-11-19T01:39:53;8.20;94.60
31379;DHT22;61664;48.112;11.662;2023-11-19T01:42:23;8.20;94.50
31379;DHT22;61664;48.112;11.662;2023-11-19T01:45:01;8.20;94.60
31379;DHT22;61664;48.112;11.662;2023-11-19T01:47:28;8.20;94.80
31379;DHT22;61664;48.112;11.662;2023-11-19T01:49:57;8.20;94.80
31379;DHT22;61664;48.112;11.662;2023-11-19T01:52:26;8.30;94.90
31379;DHT22;61664;48.112;11.662;2023-11-19T01:54:55;8.30;95.00
31379;DHT22;61664;48.112;11.662;2023-11-19T01:57:22;8.30;95.10
31379;DHT22;61664;48.112;11.662;2023-11-19T01:59:51;8.30;95.10
31379;DHT22;61664;48.112;11.662;2023-11-19T02:02:19;8.50;95.10
31379;DHT22;61664;48.112;11.662;2023-11-19T02:04:51;8.40;95.10
31379;DHT22;61664;48.112;11.662;2023-11-19T02:07:19;8.40;95.10
31379;DHT22;61664;48.112;11.662;2023-11-19T02:09:47;8.40;95.20
31379;DHT22;61664;48.112;11.662;2023-11-19T02:12:14;8.40;95.10
31379;DHT22;61664;48.112;11.662;2023-11-19T02:14:41;8.50;95.20
31379;DHT22;61664;48.112;11.662;2023-11-19T02:17:25;8.50;95.30
31379;DHT22;61664;48.112;11.662;2023-11-19T02:20:00;8.60;95.40
31379;DHT22;61664;48.112;11.662;2023-11-19T02:22:27;8.60;95.10
31379;DHT22;61664;48.112;11.662;2023-11-19T02:25:04;8.60;95.10
31379;DHT22;61664;48.112;11.662;2023-11-19T02:27:51;8.60;95.20
31379;DHT22;61664;48.112;11.662;2023-11-19T02:30:23;8.70;95.30
31379;DHT22;61664;48.112;11.662;2023-11-19T02:32:57;8.60;95.20
31379;DHT22;61664;48.112;11.662;2023-11-19T02:35:32;8.70;95.20
31379;DHT22;61664;48.112;11.662;2023-11-19T02:38:00;8.70;95.20
31379;DHT22;61664;48.112;11.662;2023-11-19T02:40:27;8.70;95.30
31379;DHT22;61664;48.112;11.662;2023-11-19T02:42:54;8.80;95.30
31379;DHT22;61664;48.112;11.662;2023-11-19T02:45:25;8.80;95.30
31379;DHT22;61664;48.112;11.662;2023-11-19T02:47:53;8.80;95.40
31379;DHT22;61664;48.112;11.662;2023-11-19T02:50:22;8.80;95.60
31379;DHT22;61664;48.112;11.662;2023-11-19T02:52:54;9.00;95.70
31379;DHT22;61664;48.112;11.662;2023-11-19T02:55:25;8.90;95.80
31379;DHT22;61664;48.112;11.662;2023-11-19T02:57:54;9.00;95.80
31379;DHT22;61664;48.112;11.662;2023-11-19T03:00:23;9.00;95.90
31379;DHT22;61664;48.112;11.662;2023-11-19T03:02:51;9.10;96.00
31379;DHT22;61664;48.112;11.662;2023-11-19T03:05:47;9.20;96.00
31379;DHT22;61664;48.112;11.662;2023-11-19T03:08:15;9.20;96.00
31379;DHT22;61664;48.112;11.662;2023-11-19T03:10:52;9.30;96.00
31379;DHT22;61664;48.112;11.662;2023-11-19T03:13:19;9.30;96.10
31379;DHT22;61664;48.112;11.662;2023-11-19T03:15:46;9.40;96.00
31379;DHT22;61664;48.112;11.662;2023-11-19T03:18:13;9.40;96.00
31379;DHT22;61664;48.112;11.662;2023-11-19T03:20:40;9.40;96.00
31379;DHT22;61664;48.112;11.662;2023-11-19T03:23:07;9.50;96.00
31379;DHT22;61664;48.112;11.662;2023-11-19T03:25:34;9.50;95.90
31379;DHT22;61664;48.112;11.662;2023-11-19T03:28:03;9.50;95.90
31379;DHT22;61664;48.112;11.662;2023-11-19T03:30:31;9.60;96.00
31379;DHT22;61664;48.112;11.662;2023-11-19T03:33:01;9.60;96.00
31379;DHT22;61664;48.112;11.662;2023-11-19T03:35:31;9.70;96.00
31379;DHT22;61664;48.112;11.662;2023-11-19T03:38:00;9.70;96.00
31379;DHT22;61664;48.112;11.662;2023-11-19T03:40:28;9.70;95.80
31379;DHT22;61664;48.112;11.662;2023-11-19T03:42:56;9.80;95.80
31379;DHT22;61664;48.112;11.662;2023-11-19T03:45:26;9.80;95.80
31379;DHT22;61664;48.112;11.662;2023-11-19T03:47:53;9.80;95.80
31379;DHT22;61664;48.112;11.662;2023-11-19T03:50:20;9.80;95.80
31379;DHT22;61664;48.112;11.662;2023-11-19T03:52:48;10.00;95.80
31379;DHT22;61664;48.112;11.662;2023-11-19T03:55:16;9.90;95.70
31379;DHT22;61664;48.112;11.662;2023-11-19T03:57:43;9.90;95.70
31379;DHT22;61664;48.112;11.662;2023-11-19T04:00:10;9.90;95.70
31379;DHT22;61664;48.112;11.662;2023-11-19T04:02:37;10.00;95.70
31379;DHT22;61664;48.112;11.662;2023-11-19T04:05:05;10.00;95.70
31379;DHT22;61664;48.112;11.662;2023-11-19T04:07:33;10.10;95.80
31379;DHT22;61664;48.112;11.662;2023-11-19T04:10:00;10.10;95.70
31379;DHT22;61664;48.112;11.662;2023-11-19T04:12:27;10.10;95.70
31379;DHT22;61664;48.112;11.662;2023-11-19T04:14:55;10.10;95.70
31379;DHT22;61664;48.112;11.662;2023-11-19T04:17:25;10.10;95.70
31379;DHT22;61664;48.112;11.662;2023-11-19T04:19:52;10.10;95.80
31379;DHT22;61664;48.112;11.662;2023-11-19T04:22:19;10.20;95.90
31379;DHT22;61664;48.112;11.662;2023-11-19T04:24:46;10.20;96.00
31379;DHT22;61664;48.112;11.662;2023-11-19T04:27:14;10.20;95.90
31379;DHT22;61664;48.112;11.662;2023-11-19T04:29:41;10.20;95.90
31379;DHT22;61664;48.112;11.662;2023-11-19T04:32:08;10.30;96.00
31379;DHT22;61664;48.112;11.662;2023-11-19T04:34:35;10.40;96.00
31379;DHT22;61664;48.112;11.662;2023-11-19T04:37:04;10.30;96.00
31379;DHT22;61664;48.112;11.662;2023-11-19T04:39:34;10.40;96.00
31379;DHT22;61664;48.112;11.662;2023-11-19T04:42:01;10.40;96.10
31379;DHT22;61664;48.112;11.662;2023-11-19T04:44:27;10.40;96.10
31379;DHT22;61664;48.112;11.662;2023-11-19T04:46:56;10.40;96.20
31379;DHT22;61664;48.112;11.662;2023-11-19T04:49:24;10.40;96.20
31379;DHT22;61664;48.112;11.662;2023-11-19T04:51:54;10.50;96.30
31379;DHT22;61664;48.112;11.662;2023-11-19T04:54:20;10.50;96.40
31379;DHT22;61664;48.112;11.662;2023-11-19T04:56:51;10.60;96.60
31379;DHT22;61664;48.112;11.662;2023-11-19T04:59:17;10.70;96.70
31379;DHT22;61664;48.112;11.662;2023-11-19T05:01:47;10.70;96.90
31379;DHT22;61664;48.112;11.662;2023-11-19T05:04:15;10.80;97.10
31379;DHT22;61664;48.112;11.662;2023-11-19T05:06:45;10.80;97.20
31379;DHT22;61664;48.112;11.662;2023-11-19T05:09:12;10.90;97.30
31379;DHT22;61664;48.112;11.662;2023-11-19T05:11:40;10.90;97.40
31379;DHT22;61664;48.112;11.662;2023-11-19T05:14:10;11.00;97.50
31379;DHT22;61664;48.112;11.662;2023-11-19T05:16:39;11.10;97.60
31379;DHT22;61664;48.112;11.662;2023-11-19T05:19:07;11.20;97.70
31379;DHT22;61664;48.112;11.662;2023-11-19T05:21:34;11.30;97.90
31379;DHT22;61664;48.112;11.662;2023-11-19T05:24:02;11.30;98.00
31379;DHT22;61664;48.112;11.662;2023-11-19T05:26:33;11.40;98.10
31379;DHT22;61664;48.112;11.662;2023-11-19T05:28:59;11.50;98.00
31379;DHT22;61664;48.112;11.662;2023-11-19T05:31:26;11.60;97.90
31379;DHT22;61664;48.112;11.662;2023-11-19T05:33:53;11.60;97.80
31379;DHT22;61664;48.112;11.662;2023-11-19T05:36:20;11.70;97.70
31379;DHT22;61664;48.112;11.662;2023-11-19T05:38:47;11.70;97.60
31379;DHT22;61664;48.112;11.662;2023-11-19T05:41:14;11.70;97.50
31379;DHT22;61664;48.112;11.662;2023-11-19T05:43:41;11.80;97.40
31379;DHT22;61664;48.112;11.662;2023-11-19T05:46:08;11.90;97.30
31379;DHT22;61664;48.112;11.662;2023-11-19T05:48:38;11.90;97.20
31379;DHT22;61664;48.112;11.662;2023-11-19T05:51:05;11.90;97.10
31379;DHT22;61664;48.112;11.662;2023-11-19T05:53:32;11.90;97.20
31379;DHT22;61664;48.112;11.662;2023-11-19T05:55:59;12.00;97.00
31379;DHT22;61664;48.112;11.662;2023-11-19T05:58:30;12.00;96.90
31379;DHT22;61664;48.112;11.662;2023-11-19T06:00:59;12.00;96.90
31379;DHT22;61664;48.112;11.662;2023-11-19T06:03:27;12.00;96.80
31379;DHT22;61664;48.112;11.662;2023-11-19T06:05:56;12.00;96.70
31379;DHT22;61664;48.112;11.662;2023-11-19T06:08:23;12.00;96.60
31379;DHT22;61664;48.112;11.662;2023-11-19T06:10:50;12.00;96.60
31379;DHT22;61664;48.112;11.662;2023-11-19T06:13:18;12.00;96.50
31379;DHT22;61664;48.112;11.662;2023-11-19T06:15:46;12.00;96.50
31379;DHT22;61664;48.112;11.662;2023-11-19T06:18:13;12.00;96.50
31379;DHT22;61664;48.112;11.662;2023-11-19T06:20:41;12.10;96.50
31379;DHT22;61664;48.112;11.662;2023-11-19T06:23:09;12.10;96.60
31379;DHT22;61664;48.112;11.662;2023-11-19T06:25:36;12.10;96.60
31379;DHT22;61664;48.112;11.662;2023-11-19T06:28:03;12.10;96.60
31379;DHT22;61664;48.112;11.662;2023-11-19T06:30:31;12.10;96.70
31379;DHT22;61664;48.112;11.662;2023-11-19T06:32:59;12.10;96.70
31379;DHT22;61664;48.112;11.662;2023-11-19T06:35:27;12.10;96.70
31379;DHT22;61664;48.112;11.662;2023-11-19T06:37:56;12.20;96.70
31379;DHT22;61664;48.112;11.662;2023-11-19T06:40:23;12.10;96.70
31379;DHT22;61664;48.112;11.662;2023-11-19T06:42:50;12.20;96.70
31379;DHT22;61664;48.112;11.662;2023-11-19T06:45:32;12.20;96.70
31379;DHT22;61664;48.112;11.662;2023-11-19T06:48:03;12.20;96.80
31379;DHT22;61664;48.112;11.662;2023-11-19T06:50:32;12.20;96.80
31379;DHT22;61664;48.112;11.662;2023-11-19T06:52:59;12.20;96.80
31379;DHT22;61664;48.112;11.662;2023-11-19T06:55:26;12.20;96.80
31379;DHT22;61664;48.112;11.662;2023-11-19T06:57:54;12.30;96.90
31379;DHT22;61664;48.112;11.662;2023-11-19T07:00:21;12.30;96.80
31379;DHT22;61664;48.112;11.662;2023-11-19T07:02:48;12.30;96.80
31379;DHT22;61664;48.112;11.662;2023-11-19T07:05:16;12.30;96.90
31379;DHT22;61664;48.112;11.662;2023-11-19T07:07:43;12.30;96.90
31379;DHT22;61664;48.112;11.662;2023-11-19T07:10:12;12.40;96.90
31379;DHT22;61664;48.112;11.662;2023-11-19T07:12:39;12.40;97.00
31379;DHT22;61664;48.112;11.662;2023-11-19T07:15:06;12.40;97.20
31379;DHT22;61664;48.112;11.662;2023-11-19T07:17:34;12.40;97.00
31379;DHT22;61664;48.112;11.662;2023-11-19T07:20:02;12.50;97.00
31379;DHT22;61664;48.112;11.662;2023-11-19T07:22:29;12.50;97.00
31379;DHT22;61664;48.112;11.662;2023-11-19T07:24:57;12.50;97.00
31379;DHT22;61664;48.112;11.662;2023-11-19T07:27:24;12.50;97.10
31379;DHT22;61664;48.112;11.662;2023-11-19T07:29:51;12.50;97.10
31379;DHT22;61664;48.112;11.662;2023-11-19T07:32:18;12.60;97.10
31379;DHT22;61664;48.112;11.662;2023-11-19T07:34:45;12.60;97.10
31379;DHT22;61664;48.112;11.662;2023-11-19T07:37:15;12.60;97.20
31379;DHT22;61664;48.112;11.662;2023-11-19T07:39:43;12.60;97.20
31379;DHT22;61664;48.112;11.662;2023-11-19T07:42:10;12.70;97.20
31379;DHT22;61664;48.112;11.662;2023-11-19T07:44:37;12.70;97.10
31379;DHT22;61664;48.112;11.662;2023-11-19T07:47:04;12.70;97.10
31379;DHT22;61664;48.112;11.662;2023-11-19T07:49:31;12.70;97.10
31379;DHT22;61664;48.112;11.662;2023-11-19T07:51:58;12.80;97.00
31379;DHT22;61664;48.112;11.662;2023-11-19T07:54:28;12.80;97.00
31379;DHT22;61664;48.112;11.662;2023-11-19T07:56:55;12.80;96.80
31379;DHT22;61664;48.112;11.662;2023-11-19T07:59:22;12.90;96.80
31379;DHT22;61664;48.112;11.662;2023-11-19T08:01:49;12.80;96.80
31379;DHT22;61664;48.112;11.662;2023-11-19T08:04:16;12.90;96.80
31379;DHT22;61664;48.112;11.662;2023-11-19T08:06:43;12.90;96.70
31379;DHT22;61664;48.112;11.662;2023-11-19T08:09:10;12.90;96.70
31379;DHT22;61664;48.112;11.662;2023-11-19T08:11:43;12.90;96.70
31379;DHT22;61664;48.112;11.662;2023-11-19T08:14:10;12.90;96.70
31379;DHT22;61664;48.112;11.662;2023-11-19T08:16:39;13.00;96.70
31379;DHT22;61664;48.112;11.662;2023-11-19T08:19:06;12.90;96.70
31379;DHT22;61664;48.112;11.662;2023-11-19T08:21:35;13.00;96.70
31379;DHT22;61664;48.112;11.662;2023-11-19T08:24:02;13.00;96.70
31379;DHT22;61664;48.112;11.662;2023-11-19T08:26:30;13.00;96.70
31379;DHT22;61664;48.112;11.662;2023-11-19T08:28:57;13.10;96.80
31379;DHT22;61664;48.112;11.662;2023-11-19T08:31:27;13.10;96.80
31379;DHT22;61664;48.112;11.662;2023-11-19T08:33:54;13.10;96.90
31379;DHT22;61664;48.112;11.662;2023-11-19T08:36:21;13.20;96.80
31379;DHT22;61664;48.112;11.662;2023-11-19T08:38:48;13.20;96.80
31379;DHT22;61664;48.112;11.662;2023-11-19T08:41:16;13.20;96.70
31379;DHT22;61664;48.112;11.662;2023-11-19T08:43:45;13.20;96.70
31379;DHT22;61664;48.112;11.662;2023-11-19T08:46:12;13.30;96.70
31379;DHT22;61664;48.112;11.662;2023-11-19T08:48:40;13.40;96.60
31379;DHT22;61664;48.112;11.662;2023-11-19T08:51:07;13.30;96.60
31379;DHT22;61664;48.112;11.662;2023-11-19T08:53:37;13.30;96.60
31379;DHT22;61664;48.112;11.662;2023-11-19T08:56:04;13.30;96.70
31379;DHT22;61664;48.112;11.662;2023-11-19T08:58:31;13.40;96.70
31379;DHT22;61664;48.112;11.662;2023-11-19T09:00:59;13.40;96.70
31379;DHT22;61664;48.112;11.662;2023-11-19T09:03:26;13.50;96.70
31379;DHT22;61664;48.112;11.662;2023-11-19T09:05:53;13.50;96.60
31379;DHT22;61664;48.112;11.662;2023-11-19T09:08:20;13.50;96.50
31379;DHT22;61664;48.112;11.662;2023-11-19T09:10:47;13.50;96.50
31379;DHT22;61664;48.112;11.662;2023-11-19T09:13:14;13.50;96.50
31379;DHT22;61664;48.112;11.662;2023-11-19T09:15:41;13.60;96.50
31379;DHT22;61664;48.112;11.662;2023-11-19T09:18:13;13.60;96.50
31379;DHT22;61664;48.112;11.662;2023-11-19T09:20:42;13.60;96.40
31379;DHT22;61664;48.112;11.662;2023-11-19T09:23:09;13.60;96.40
31379;DHT22;61664;48.112;11.662;2023-11-19T09:25:36;13.60;96.40
31379;DHT22;61664;48.112;11.662;2023-11-19T09:28:06;13.70;96.40
31379;DHT22;61664;48.112;11.662;2023-11-19T09:30:35;13.70;96.40
31379;DHT22;61664;48.112;11.662;2023-11-19T09:33:02;13.70;96.50
31379;DHT22;61664;48.112;11.662;2023-11-19T09:35:29;13.70;96.50
31379;DHT22;61664;48.112;11.662;2023-11-19T09:37:57;13.70;96.60
31379;DHT22;61664;48.112;11.662;2023-11-19T09:40:24;13.80;96.60
31379;DHT22;61664;48.112;11.662;2023-11-19T09:43:11;13.80;96.60
31379;DHT22;61664;48.112;11.662;2023-11-19T09:45:49;13.80;96.50
31379;DHT22;61664;48.112;11.662;2023-11-19T09:48:18;13.90;96.60
31379;DHT22;61664;48.112;11.662;2023-11-19T09:50:47;13.90;96.40
31379;DHT22;61664;48.112;11.662;2023-11-19T09:53:15;13.90;96.30
31379;DHT22;61664;48.112;11.662;2023-11-19T09:55:42;13.90;96.10
31379;DHT22;61664;48.112;11.662;2023-11-19T09:58:12;13.90;96.00
31379;DHT22;61664;48.112;11.662;2023-11-19T10:00:41;13.90;96.00
31379;DHT22;61664;48.112;11.662;2023-11-19T10:03:10;13.90;96.10
31379;DHT22;61664;48.112;11.662;2023-11-19T10:05:41;13.90;96.30
31379;DHT22;61664;48.112;11.662;2023-11-19T10:08:08;13.90;96.30
31379;DHT22;61664;48.112;11.662;2023-11-19T10:10:37;13.90;96.50
31379;DHT22;61664;48.112;11.662;2023-11-19T10:13:04;14.00;96.70
31379;DHT22;61664;48.112;11.662;2023-11-19T10:15:36;14.00;97.00
31379;DHT22;61664;48.112;11.662;2023-11-19T10:18:04;14.10;97.10
31379;DHT22;61664;48.112;11.662;2023-11-19T10:20:41;14.10;97.10
31379;DHT22;61664;48.112;11.662;2023-11-19T10:23:09;14.20;97.00
31379;DHT22;61664;48.112;11.662;2023-11-19T10:25:37;14.30;97.00
31379;DHT22;61664;48.112;11.662;2023-11-19T10:28:04;14.30;97.10
31379;DHT22;61664;48.112;11.662;2023-11-19T10:30:31;14.30;97.00
31379;DHT22;61664;48.112;11.662;2023-11-19T10:33:04;14.40;97.00
31379;DHT22;61664;48.112;11.662;2023-11-19T10:35:53;14.40;97.30
31379;DHT22;61664;48.112;11.662;2023-11-19T10:38:26;14.50;97.40
31379;DHT22;61664;48.112;11.662;2023-11-19T10:40:54;14.50;97.60
31379;DHT22;61664;48.112;11.662;2023-11-19T10:43:21;14.60;97.60
31379;DHT22;61664;48.112;11.662;2023-11-19T10:45:50;14.70;97.50
31379;DHT22;61664;48.112;11.662;2023-11-19T10:48:18;14.70;97.50
31379;DHT22;61664;48.112;11.662;2023-11-19T10:50:46;14.80;97.70
31379;DHT22;61664;48.112;11.662;2023-11-19T10:53:20;14.90;98.30
31379;DHT22;61664;48.112;11.662;2023-11-19T10:55:50;15.00;98.60
31379;DHT22;61664;48.112;11.662;2023-11-19T10:58:18;15.20;98.50
31379;DHT22;61664;48.112;11.662;2023-11-19T11:00:46;15.20;98.40
31379;DHT22;61664;48.112;11.662;2023-11-19T11:03:19;15.30;98.20
31379;DHT22;61664;48.112;11.662;2023-11-19T11:05:48;15.40;97.90
31379;DHT22;61664;48.112;11.662;2023-11-19T11:08:17;15.50;97.60
31379;DHT22;61664;48.112;11.662;2023-11-19T11:10:54;15.50;97.40
31379;DHT22;61664;48.112;11.662;2023-11-19T11:13:25;15.50;97.30
31379;DHT22;61664;48.112;11.662;2023-11-19T11:15:56;15.60;97.00
31379;DHT22;61664;48.112;11.662;2023-11-19T11:18:27;15.50;96.50
31379;DHT22;61664;48.112;11.662;2023-11-19T11:21:04;15.50;96.40
31379;DHT22;61664;48.112;11.662;2023-11-19T11:32:48;15.50;96.60
31379;DHT22;61664;48.112;11.662;2023-11-19T11:38:07;15.60;96.70
31379;DHT22;61664;48.112;11.662;2023-11-19T11:40:35;15.60;96.80
31379;DHT22;61664;48.112;11.662;2023-11-19T11:46:53;15.60;96.70
31379;DHT22;61664;48.112;11.662;2023-11-19T11:49:28;15.70;96.80
31379;DHT22;61664;48.112;11.662;2023-11-19T11:57:10;15.70;97.20
31379;DHT22;61664;48.112;11.662;2023-11-19T12:02:19;15.80;97.20
31379;DHT22;61664;48.112;11.662;2023-11-19T12:04:52;15.90;97.40
31379;DHT22;61664;48.112;11.662;2023-11-19T12:07:20;15.90;97.50
31379;DHT22;61664;48.112;11.662;2023-11-19T12:09:57;15.90;97.30
31379;DHT22;61664;48.112;11.662;2023-11-19T12:12:35;15.90;97.20
31379;DHT22;61664;48.112;11.662;2023-11-19T12:15:08;16.00;97.10
31379;DHT22;61664;48.112;11.662;2023-11-19T12:17:48;16.00;97.20
31379;DHT22;61664;48.112;11.662;2023-11-19T12:20:23;16.00;97.40
31379;DHT22;61664;48.112;11.662;2023-11-19T12:22:55;16.10;97.30
31379;DHT22;61664;48.112;11.662;2023-11-19T12:25:22;16.10;97.40
31379;DHT22;61664;48.112;11.662;2023-11-19T12:27:51;16.20;97.70
31379;DHT22;61664;48.112;11.662;2023-11-19T12:30:24;16.20;98.10
31379;DHT22;61664;48.112;11.662;2023-11-19T12:32:53;16.30;97.80
31379;DHT22;61664;48.112;11.662;2023-11-19T12:35:22;16.30;97.50
31379;DHT22;61664;48.112;11.662;2023-11-19T12:37:51;16.30;97.10
31379;DHT22;61664;48.112;11.662;2023-11-19T12:40:32;16.40;97.10
31379;DHT22;61664;48.112;11.662;2023-11-19T12:42:59;16.40;97.00
31379;DHT22;61664;48.112;11.662;2023-11-19T12:45:36;16.40;96.60
31379;DHT22;61664;48.112;11.662;2023-11-19T12:48:09;16.40;96.20
31379;DHT22;61664;48.112;11.662;2023-11-19T12:50:57;16.30;96.00
31379;DHT22;61664;48.112;11.662;2023-11-19T12:53:25;16.40;96.00
31379;DHT22;61664;48.112;11.662;2023-11-19T12:55:55;16.30;96.20
31379;DHT22;61664;48.112;11.662;2023-11-19T12:58:31;16.30;96.60
31379;DHT22;61664;48.112;11.662;2023-11-19T13:01:06;16.30;97.20
31379;DHT22;61664;48.112;11.662;2023-11-19T13:03:35;16.40;97.40
31379;DHT22;61664;48.112;11.662;2023-11-19T13:06:09;16.50;97.50
31379;DHT22;61664;48.112;11.662;2023-11-19T13:08:42;16.50;97.40
31379;DHT22;61664;48.112;11.662;2023-11-19T13:11:12;16.50;97.60
31379;DHT22;61664;48.112;11.662;2023-11-19T13:16:37;16.60;97.10
31379;DHT22;61664;48.112;11.662;2023-11-19T13:19:05;16.50;97.10
31379;DHT22;61664;48.112;11.662;2023-11-19T13:21:32;16.50;96.80
31379;DHT22;61664;48.112;11.662;2023-11-19T13:24:00;16.50;96.60
31379;DHT22;61664;48.112;11.662;2023-11-19T13:26:26;16.50;96.20
31379;DHT22;61664;48.112;11.662;2023-11-19T13:28:54;16.50;96.10
31379;DHT22;61664;48.112;11.662;2023-11-19T13:31:21;16.40;96.00
31379;DHT22;61664;48.112;11.662;2023-11-19T13:33:49;16.40;95.90
31379;DHT22;61664;48.112;11.662;2023-11-19T13:36:16;16.40;96.00
31379;DHT22;61664;48.112;11.662;2023-11-19T13:38:43;16.30;96.20
31379;DHT22;61664;48.112;11.662;2023-11-19T13:41:14;16.30;96.40
31379;DHT22;61664;48.112;11.662;2023-11-19T13:43:41;16.30;96.40
31379;DHT22;61664;48.112;11.662;2023-11-19T13:46:08;16.30;96.40
31379;DHT22;61664;48.112;11.662;2023-11-19T13:48:38;16.30;96.30
31379;DHT22;61664;48.112;11.662;2023-11-19T13:51:06;16.30;96.20
31379;DHT22;61664;48.112;11.662;2023-11-19T13:53:33;16.20;96.20
31379;DHT22;61664;48.112;11.662;2023-11-19T13:56:17;16.20;96.30
31379;DHT22;61664;48.112;11.662;2023-11-19T13:58:45;16.20;96.10
31379;DHT22;61664;48.112;11.662;2023-11-19T14:01:12;16.20;96.10
31379;DHT22;61664;48.112;11.662;2023-11-19T14:03:40;16.10;96.00
31379;DHT22;61664;48.112;11.662;2023-11-19T14:06:08;16.10;96.00
31379;DHT22;61664;48.112;11.662;2023-11-19T14:08:35;16.10;96.00
31379;DHT22;61664;48.112;11.662;2023-11-19T14:11:03;16.10;96.10
31379;DHT22;61664;48.112;11.662;2023-11-19T14:13:30;16.10;96.00
31379;DHT22;61664;48.112;11.662;2023-11-19T14:15:57;16.00;96.00
31379;DHT22;61664;48.112;11.662;2023-11-19T14:18:24;16.00;96.10
31379;DHT22;61664;48.112;11.662;2023-11-19T14:20:53;16.00;96.10
31379;DHT22;61664;48.112;11.662;2023-11-19T14:23:20;16.00;96.20
31379;DHT22;61664;48.112;11.662;2023-11-19T14:25:47;16.00;96.20
31379;DHT22;61664;48.112;11.662;2023-11-19T14:28:16;16.00;96.10
31379;DHT22;61664;48.112;11.662;2023-11-19T14:30:43;15.90;96.10
31379;DHT22;61664;48.112;11.662;2023-11-19T14:33:11;15.90;96.10
31379;DHT22;61664;48.112;11.662;2023-11-19T14:35:38;15.90;96.00
31379;DHT22;61664;48.112;11.662;2023-11-19T14:38:05;15.90;95.90
31379;DHT22;61664;48.112;11.662;2023-11-19T14:40:36;15.90;96.00
31379;DHT22;61664;48.112;11.662;2023-11-19T14:43:06;16.00;96.30
31379;DHT22;61664;48.112;11.662;2023-11-19T14:45:32;15.90;95.60
31379;DHT22;61664;48.112;11.662;2023-11-19T14:48:10;15.90;95.80
31379;DHT22;61664;48.112;11.662;2023-11-19T14:50:37;15.90;96.00
31379;DHT22;61664;48.112;11.662;2023-11-19T14:53:04;15.90;96.10
31379;DHT22;61664;48.112;11.662;2023-11-19T14:55:32;15.90;96.20
31379;DHT22;61664;48.112;11.662;2023-11-19T14:57:58;16.00;96.10
31379;DHT22;61664;48.112;11.662;2023-11-19T15:00:35;15.90;95.80
31379;DHT22;61664;48.112;11.662;2023-11-19T15:03:02;15.90;95.60
31379;DHT22;61664;48.112;11.662;2023-11-19T15:05:30;15.90;95.50
31379;DHT22;61664;48.112;11.662;2023-11-19T15:07:57;15.80;95.20
31379;DHT22;61664;48.112;11.662;2023-11-19T15:10:24;15.80;95.20
31379;DHT22;61664;48.112;11.662;2023-11-19T15:12:52;15.70;95.00
31379;DHT22;61664;48.112;11.662;2023-11-19T15:15:20;15.70;94.90
31379;DHT22;61664;48.112;11.662;2023-11-19T15:17:51;15.60;94.90
31379;DHT22;61664;48.112;11.662;2023-11-19T15:20:18;15.60;94.80
31379;DHT22;61664;48.112;11.662;2023-11-19T15:22:46;15.50;94.80
31379;DHT22;61664;48.112;11.662;2023-11-19T15:25:13;15.50;94.70
31379;DHT22;61664;48.112;11.662;2023-11-19T15:27:40;15.40;94.80
31379;DHT22;61664;48.112;11.662;2023-11-19T15:30:08;15.30;94.80
31379;DHT22;61664;48.112;11.662;2023-11-19T15:32:37;15.30;94.80
31379;DHT22;61664;48.112;11.662;2023-11-19T15:35:05;15.30;94.80
31379;DHT22;61664;48.112;11.662;2023-11-19T15:37:34;15.20;94.80
31379;DHT22;61664;48.112;11.662;2023-11-19T15:40:02;15.20;94.80
31379;DHT22;61664;48.112;11.662;2023-11-19T15:42:35;15.10;94.80
31379;DHT22;61664;48.112;11.662;2023-11-19T15:45:02;15.10;94.80
31379;DHT22;61664;48.112;11.662;2023-11-19T15:47:36;15.00;94.90
31379;DHT22;61664;48.112;11.662;2023-11-19T15:50:04;15.00;94.90
31379;DHT22;61664;48.112;11.662;2023-11-19T15:52:32;14.90;94.90
31379;DHT22;61664;48.112;11.662;2023-11-19T15:54:59;14.90;94.90
31379;DHT22;61664;48.112;11.662;2023-11-19T15:57:26;14.90;94.90